sensor_id;sensor_type;location;lat;lon;timestamp;P1;durP1;ratioP1;P2;durP2;ratioP2
74644;SDS011;63163;55.630;37.594;2023-03-31T00:00:20;5.7;;;4.0;;
74644;SDS011;63163;55.630;37.594;2023-03-31T00:01:21;5.7;;;3.6;;
74644;SDS011;63163;55.630;37.594;2023-03-31T00:02:23;6.9;;;3.9;;
74644;SDS011;63163;55.630;37.594;2023-03-31T00:03:24;5.8;;;3.6;;
74644;SDS011;63163;55.630;37.594;2023-03-31T00:04:24;6.0;;;3.8;;
74644;SDS011;63163;55.630;37.594;2023-03-31T00:05:26;6.3;;;4.0;;
74644;SDS011;63163;55.630;37.594;2023-03-31T00:06:27;3.8;;;2.8;;
74644;SDS011;63163;55.630;37.594;2023-03-31T00:07:27;6.3;;;3.4;;
74644;SDS011;63163;55.630;37.594;2023-03-31T00:08:29;5.2;;;3.3;;
74644;SDS011;63163;55.630;37.594;2023-03-31T00:09:34;5.8;;;3.3;;
74644;SDS011;63163;55.630;37.594;2023-03-31T00:10:35;5.5;;;3.6;;
74644;SDS011;63163;55.630;37.594;2023-03-31T00:11:35;6.8;;;3.6;;
74644;SDS011;63163;55.630;37.594;2023-03-31T00:12:36;5.9;;;2.9;;
74644;SDS011;63163;55.630;37.594;2023-03-31T00:13:37;5.8;;;3.4;;
74644;SDS011;63163;55.630;37.594;2023-03-31T00:14:37;5.2;;;3.1;;
74644;SDS011;63163;55.630;37.594;2023-03-31T00:15:38;4.5;;;3.0;;
74644;SDS011;63163;55.630;37.594;2023-03-31T00:16:38;6.0;;;3.4;;
74644;SDS011;63163;55.630;37.594;2023-03-31T00:17:39;4.8;;;3.1;;
74644;SDS011;63163;55.630;37.594;2023-03-31T00:18:40;5.4;;;3.3;;
74644;SDS011;63163;55.630;37.594;2023-03-31T00:19:46;5.6;;;3.4;;
74644;SDS011;63163;55.630;37.594;2023-03-31T00:20:49;6.2;;;3.8;;
74644;SDS011;63163;55.630;37.594;2023-03-31T00:21:52;5.3;;;3.8;;
74644;SDS011;63163;55.630;37.594;2023-03-31T00:22:53;5.4;;;3.7;;
74644;SDS011;63163;55.630;37.594;2023-03-31T00:23:57;5.5;;;3.5;;
74644;SDS011;63163;55.630;37.594;2023-03-31T00:24:58;5.1;;;3.4;;
74644;SDS011;63163;55.630;37.594;2023-03-31T00:25:59;5.1;;;3.1;;
74644;SDS011;63163;55.630;37.594;2023-03-31T00:27:00;6.3;;;3.3;;
74644;SDS011;63163;55.630;37.594;2023-03-31T00:28:01;5.2;;;3.6;;
74644;SDS011;63163;55.630;37.594;2023-03-31T00:29:02;5.2;;;3.2;;
74644;SDS011;63163;55.630;37.594;2023-03-31T00:30:03;6.0;;;3.0;;
74644;SDS011;63163;55.630;37.594;2023-03-31T00:31:04;4.5;;;3.3;;
74644;SDS011;63163;55.630;37.594;2023-03-31T00:32:04;6.1;;;3.1;;
74644;SDS011;63163;55.630;37.594;2023-03-31T00:33:05;4.6;;;2.9;;
74644;SDS011;63163;55.630;37.594;2023-03-31T00:34:06;5.4;;;3.4;;
74644;SDS011;63163;55.630;37.594;2023-03-31T00:35:07;6.8;;;3.4;;
74644;SDS011;63163;55.630;37.594;2023-03-31T00:36:08;5.1;;;3.2;;
74644;SDS011;63163;55.630;37.594;2023-03-31T00:37:08;5.0;;;2.8;;
74644;SDS011;63163;55.630;37.594;2023-03-31T00:38:09;5.5;;;3.3;;
74644;SDS011;63163;55.630;37.594;2023-03-31T00:39:13;5.9;;;3.8;;
74644;SDS011;63163;55.630;37.594;2023-03-31T00:40:14;5.5;;;3.4;;
74644;SDS011;63163;55.630;37.594;2023-03-31T00:41:15;5.7;;;3.5;;
74644;SDS011;63163;55.630;37.594;2023-03-31T00:42:15;6.7;;;3.6;;
74644;SDS011;63163;55.630;37.594;2023-03-31T00:43:22;5.1;;;3.4;;
74644;SDS011;63163;55.630;37.594;2023-03-31T00:44:24;6.2;;;3.6;;
74644;SDS011;63163;55.630;37.594;2023-03-31T00:45:26;6.1;;;3.5;;
74644;SDS011;63163;55.630;37.594;2023-03-31T00:46:28;5.8;;;3.8;;
74644;SDS011;63163;55.630;37.594;2023-03-31T00:47:30;6.5;;;3.6;;
74644;SDS011;63163;55.630;37.594;2023-03-31T00:48:30;6.4;;;4.0;;
74644;SDS011;63163;55.630;37.594;2023-03-31T00:49:32;6.1;;;3.5;;
74644;SDS011;63163;55.630;37.594;2023-03-31T00:50:34;7.0;;;4.2;;
74644;SDS011;63163;55.630;37.594;2023-03-31T00:51:35;5.4;;;3.4;;
74644;SDS011;63163;55.630;37.594;2023-03-31T00:52:35;5.8;;;3.6;;
74644;SDS011;63163;55.630;37.594;2023-03-31T00:53:36;5.7;;;3.4;;
74644;SDS011;63163;55.630;37.594;2023-03-31T00:54:37;6.2;;;3.7;;
74644;SDS011;63163;55.630;37.594;2023-03-31T00:55:39;5.4;;;3.4;;
74644;SDS011;63163;55.630;37.594;2023-03-31T00:56:42;5.2;;;3.4;;
74644;SDS011;63163;55.630;37.594;2023-03-31T00:57:44;3.9;;;2.7;;
74644;SDS011;63163;55.630;37.594;2023-03-31T00:58:46;6.5;;;3.7;;
74644;SDS011;63163;55.630;37.594;2023-03-31T00:59:49;6.4;;;3.6;;
74644;SDS011;63163;55.630;37.594;2023-03-31T01:00:51;5.9;;;3.3;;
74644;SDS011;63163;55.630;37.594;2023-03-31T01:01:52;5.5;;;2.9;;
74644;SDS011;63163;55.630;37.594;2023-03-31T01:02:54;5.4;;;3.3;;
74644;SDS011;63163;55.630;37.594;2023-03-31T01:03:59;5.5;;;3.3;;
74644;SDS011;63163;55.630;37.594;2023-03-31T01:04:59;5.4;;;3.3;;
74644;SDS011;63163;55.630;37.594;2023-03-31T01:06:01;5.9;;;3.7;;
74644;SDS011;63163;55.630;37.594;2023-03-31T01:07:06;5.2;;;3.4;;
74644;SDS011;63163;55.630;37.594;2023-03-31T01:08:08;6.1;;;3.8;;
74644;SDS011;63163;55.630;37.594;2023-03-31T01:09:09;5.9;;;3.7;;
74644;SDS011;63163;55.630;37.594;2023-03-31T01:10:09;5.5;;;3.5;;
74644;SDS011;63163;55.630;37.594;2023-03-31T01:11:11;4.8;;;3.2;;
74644;SDS011;63163;55.630;37.594;2023-03-31T01:12:12;6.0;;;3.8;;
74644;SDS011;63163;55.630;37.594;2023-03-31T01:13:14;5.9;;;3.5;;
74644;SDS011;63163;55.630;37.594;2023-03-31T01:14:15;5.9;;;3.4;;
74644;SDS011;63163;55.630;37.594;2023-03-31T01:15:16;4.8;;;3.3;;
74644;SDS011;63163;55.630;37.594;2023-03-31T01:16:17;5.2;;;3.7;;
74644;SDS011;63163;55.630;37.594;2023-03-31T01:17:17;6.3;;;3.6;;
74644;SDS011;63163;55.630;37.594;2023-03-31T01:18:20;5.9;;;4.2;;
74644;SDS011;63163;55.630;37.594;2023-03-31T01:19:23;7.9;;;3.4;;
74644;SDS011;63163;55.630;37.594;2023-03-31T01:20:28;6.0;;;3.8;;
74644;SDS011;63163;55.630;37.594;2023-03-31T01:21:39;5.9;;;3.6;;
74644;SDS011;63163;55.630;37.594;2023-03-31T01:22:58;5.8;;;3.8;;
74644;SDS011;63163;55.630;37.594;2023-03-31T01:24:13;6.2;;;3.9;;
74644;SDS011;63163;55.630;37.594;2023-03-31T01:26:35;9.3;;;5.0;;
74644;SDS011;63163;55.630;37.594;2023-03-31T01:27:44;6.8;;;3.7;;
74644;SDS011;63163;55.630;37.594;2023-03-31T01:28:49;7.4;;;4.0;;
74644;SDS011;63163;55.630;37.594;2023-03-31T01:29:57;6.2;;;3.6;;
74644;SDS011;63163;55.630;37.594;2023-03-31T01:31:09;5.7;;;3.7;;
74644;SDS011;63163;55.630;37.594;2023-03-31T01:32:37;6.5;;;4.0;;
74644;SDS011;63163;55.630;37.594;2023-03-31T01:33:57;5.9;;;3.7;;
74644;SDS011;63163;55.630;37.594;2023-03-31T01:35:06;6.3;;;4.0;;
74644;SDS011;63163;55.630;37.594;2023-03-31T01:36:16;6.2;;;3.5;;
74644;SDS011;63163;55.630;37.594;2023-03-31T01:37:42;7.3;;;4.3;;
74644;SDS011;63163;55.630;37.594;2023-03-31T01:38:50;5.1;;;3.2;;
74644;SDS011;63163;55.630;37.594;2023-03-31T01:40:13;5.3;;;3.4;;
74644;SDS011;63163;55.630;37.594;2023-03-31T01:41:18;6.2;;;3.8;;
74644;SDS011;63163;55.630;37.594;2023-03-31T01:42:20;6.1;;;3.5;;
74644;SDS011;63163;55.630;37.594;2023-03-31T01:43:25;7.0;;;3.8;;
74644;SDS011;63163;55.630;37.594;2023-03-31T01:44:29;6.3;;;3.8;;
74644;SDS011;63163;55.630;37.594;2023-03-31T01:45:36;7.3;;;4.3;;
74644;SDS011;63163;55.630;37.594;2023-03-31T01:46:39;6.0;;;4.2;;
74644;SDS011;63163;55.630;37.594;2023-03-31T01:47:42;5.5;;;3.5;;
74644;SDS011;63163;55.630;37.594;2023-03-31T01:48:46;5.2;;;3.5;;
74644;SDS011;63163;55.630;37.594;2023-03-31T01:49:51;5.8;;;3.6;;
74644;SDS011;63163;55.630;37.594;2023-03-31T01:50:55;7.3;;;4.2;;
74644;SDS011;63163;55.630;37.594;2023-03-31T01:51:57;6.3;;;3.9;;
74644;SDS011;63163;55.630;37.594;2023-03-31T01:53:01;7.2;;;3.9;;
74644;SDS011;63163;55.630;37.594;2023-03-31T01:54:10;6.3;;;3.8;;
74644;SDS011;63163;55.630;37.594;2023-03-31T01:55:17;7.5;;;4.2;;
74644;SDS011;63163;55.630;37.594;2023-03-31T01:56:19;6.5;;;4.2;;
74644;SDS011;63163;55.630;37.594;2023-03-31T01:57:22;5.9;;;3.8;;
74644;SDS011;63163;55.630;37.594;2023-03-31T01:58:27;7.5;;;3.6;;
74644;SDS011;63163;55.630;37.594;2023-03-31T01:59:33;5.7;;;3.8;;
74644;SDS011;63163;55.630;37.594;2023-03-31T02:00:35;6.1;;;3.9;;
74644;SDS011;63163;55.630;37.594;2023-03-31T02:01:38;8.2;;;3.8;;
74644;SDS011;63163;55.630;37.594;2023-03-31T02:02:41;6.4;;;3.5;;
74644;SDS011;63163;55.630;37.594;2023-03-31T02:03:46;4.7;;;3.3;;
74644;SDS011;63163;55.630;37.594;2023-03-31T02:04:49;5.3;;;3.4;;
74644;SDS011;63163;55.630;37.594;2023-03-31T02:05:51;6.6;;;3.7;;
74644;SDS011;63163;55.630;37.594;2023-03-31T02:06:54;5.0;;;3.3;;
74644;SDS011;63163;55.630;37.594;2023-03-31T02:07:57;5.2;;;3.3;;
74644;SDS011;63163;55.630;37.594;2023-03-31T02:09:00;4.9;;;3.1;;
74644;SDS011;63163;55.630;37.594;2023-03-31T02:10:02;4.3;;;2.8;;
74644;SDS011;63163;55.630;37.594;2023-03-31T02:11:04;4.3;;;2.8;;
74644;SDS011;63163;55.630;37.594;2023-03-31T02:12:06;4.1;;;2.8;;
74644;SDS011;63163;55.630;37.594;2023-03-31T02:13:07;3.8;;;2.7;;
74644;SDS011;63163;55.630;37.594;2023-03-31T02:14:11;4.2;;;2.6;;
74644;SDS011;63163;55.630;37.594;2023-03-31T02:15:18;4.4;;;2.5;;
74644;SDS011;63163;55.630;37.594;2023-03-31T02:16:21;4.0;;;2.6;;
74644;SDS011;63163;55.630;37.594;2023-03-31T02:17:24;3.8;;;2.3;;
74644;SDS011;63163;55.630;37.594;2023-03-31T02:18:30;4.5;;;2.5;;
74644;SDS011;63163;55.630;37.594;2023-03-31T02:19:33;4.3;;;2.5;;
74644;SDS011;63163;55.630;37.594;2023-03-31T02:20:34;4.2;;;2.8;;
74644;SDS011;63163;55.630;37.594;2023-03-31T02:21:36;3.1;;;2.1;;
74644;SDS011;63163;55.630;37.594;2023-03-31T02:22:39;3.2;;;2.3;;
74644;SDS011;63163;55.630;37.594;2023-03-31T02:23:41;3.5;;;2.1;;
74644;SDS011;63163;55.630;37.594;2023-03-31T02:24:43;3.8;;;2.6;;
74644;SDS011;63163;55.630;37.594;2023-03-31T02:25:46;4.5;;;2.6;;
74644;SDS011;63163;55.630;37.594;2023-03-31T02:26:48;3.6;;;2.6;;
74644;SDS011;63163;55.630;37.594;2023-03-31T02:27:52;4.0;;;2.8;;
74644;SDS011;63163;55.630;37.594;2023-03-31T02:28:54;3.9;;;2.4;;
74644;SDS011;63163;55.630;37.594;2023-03-31T02:29:55;3.4;;;2.3;;
74644;SDS011;63163;55.630;37.594;2023-03-31T02:31:00;4.6;;;2.8;;
74644;SDS011;63163;55.630;37.594;2023-03-31T02:32:05;3.7;;;2.3;;
74644;SDS011;63163;55.630;37.594;2023-03-31T02:33:08;4.3;;;2.7;;
74644;SDS011;63163;55.630;37.594;2023-03-31T02:34:09;4.5;;;2.7;;
74644;SDS011;63163;55.630;37.594;2023-03-31T02:35:10;4.2;;;2.7;;
74644;SDS011;63163;55.630;37.594;2023-03-31T02:36:11;4.0;;;2.5;;
74644;SDS011;63163;55.630;37.594;2023-03-31T02:37:12;5.7;;;2.6;;
74644;SDS011;63163;55.630;37.594;2023-03-31T02:38:13;5.3;;;2.7;;
74644;SDS011;63163;55.630;37.594;2023-03-31T02:39:14;4.5;;;2.6;;
74644;SDS011;63163;55.630;37.594;2023-03-31T02:40:16;5.3;;;2.7;;
74644;SDS011;63163;55.630;37.594;2023-03-31T02:41:17;4.5;;;3.0;;
74644;SDS011;63163;55.630;37.594;2023-03-31T02:42:18;4.3;;;3.0;;
74644;SDS011;63163;55.630;37.594;2023-03-31T02:43:18;4.5;;;2.7;;
74644;SDS011;63163;55.630;37.594;2023-03-31T02:44:19;4.8;;;2.7;;
74644;SDS011;63163;55.630;37.594;2023-03-31T02:45:37;4.4;;;2.6;;
74644;SDS011;63163;55.630;37.594;2023-03-31T02:46:38;4.6;;;2.8;;
74644;SDS011;63163;55.630;37.594;2023-03-31T02:47:39;6.3;;;2.8;;
74644;SDS011;63163;55.630;37.594;2023-03-31T02:48:40;5.0;;;3.1;;
74644;SDS011;63163;55.630;37.594;2023-03-31T02:49:43;4.1;;;3.0;;
74644;SDS011;63163;55.630;37.594;2023-03-31T02:50:51;4.8;;;3.2;;
74644;SDS011;63163;55.630;37.594;2023-03-31T02:52:04;5.6;;;3.2;;
74644;SDS011;63163;55.630;37.594;2023-03-31T02:53:11;4.3;;;2.8;;
74644;SDS011;63163;55.630;37.594;2023-03-31T02:54:19;4.7;;;3.0;;
74644;SDS011;63163;55.630;37.594;2023-03-31T02:55:34;4.6;;;2.9;;
74644;SDS011;63163;55.630;37.594;2023-03-31T02:56:42;5.9;;;3.2;;
74644;SDS011;63163;55.630;37.594;2023-03-31T02:57:49;5.1;;;3.0;;
74644;SDS011;63163;55.630;37.594;2023-03-31T02:58:56;4.0;;;2.8;;
74644;SDS011;63163;55.630;37.594;2023-03-31T03:00:05;4.2;;;2.8;;
74644;SDS011;63163;55.630;37.594;2023-03-31T03:01:10;5.1;;;2.9;;
74644;SDS011;63163;55.630;37.594;2023-03-31T03:02:18;5.4;;;3.1;;
74644;SDS011;63163;55.630;37.594;2023-03-31T03:03:27;4.4;;;2.9;;
74644;SDS011;63163;55.630;37.594;2023-03-31T03:04:34;4.6;;;2.8;;
74644;SDS011;63163;55.630;37.594;2023-03-31T03:05:38;4.2;;;2.8;;
74644;SDS011;63163;55.630;37.594;2023-03-31T03:06:41;4.3;;;2.8;;
74644;SDS011;63163;55.630;37.594;2023-03-31T03:07:45;3.4;;;2.5;;
74644;SDS011;63163;55.630;37.594;2023-03-31T03:08:52;5.7;;;3.1;;
74644;SDS011;63163;55.630;37.594;2023-03-31T03:09:57;5.0;;;3.1;;
74644;SDS011;63163;55.630;37.594;2023-03-31T03:11:02;4.4;;;2.7;;
74644;SDS011;63163;55.630;37.594;2023-03-31T03:12:07;5.9;;;2.8;;
74644;SDS011;63163;55.630;37.594;2023-03-31T03:13:10;4.6;;;2.8;;
74644;SDS011;63163;55.630;37.594;2023-03-31T03:14:14;5.0;;;2.4;;
74644;SDS011;63163;55.630;37.594;2023-03-31T03:15:17;4.0;;;2.4;;
74644;SDS011;63163;55.630;37.594;2023-03-31T03:16:21;4.2;;;2.7;;
74644;SDS011;63163;55.630;37.594;2023-03-31T03:17:24;4.4;;;2.5;;
74644;SDS011;63163;55.630;37.594;2023-03-31T03:18:26;4.6;;;2.8;;
74644;SDS011;63163;55.630;37.594;2023-03-31T03:19:27;5.6;;;2.7;;
74644;SDS011;63163;55.630;37.594;2023-03-31T03:20:27;4.7;;;2.5;;
74644;SDS011;63163;55.630;37.594;2023-03-31T03:21:28;3.7;;;2.5;;
74644;SDS011;63163;55.630;37.594;2023-03-31T03:22:28;4.8;;;3.0;;
74644;SDS011;63163;55.630;37.594;2023-03-31T03:23:29;4.4;;;3.1;;
74644;SDS011;63163;55.630;37.594;2023-03-31T03:24:30;4.3;;;2.8;;
74644;SDS011;63163;55.630;37.594;2023-03-31T03:25:33;4.3;;;2.9;;
74644;SDS011;63163;55.630;37.594;2023-03-31T03:26:34;4.7;;;2.9;;
74644;SDS011;63163;55.630;37.594;2023-03-31T03:27:34;4.6;;;2.8;;
74644;SDS011;63163;55.630;37.594;2023-03-31T03:28:35;4.5;;;2.7;;
74644;SDS011;63163;55.630;37.594;2023-03-31T03:29:36;4.9;;;2.8;;
74644;SDS011;63163;55.630;37.594;2023-03-31T03:30:36;4.5;;;2.8;;
74644;SDS011;63163;55.630;37.594;2023-03-31T03:31:37;4.9;;;3.0;;
74644;SDS011;63163;55.630;37.594;2023-03-31T03:32:37;4.9;;;2.7;;
74644;SDS011;63163;55.630;37.594;2023-03-31T03:33:38;5.1;;;3.1;;
74644;SDS011;63163;55.630;37.594;2023-03-31T03:34:39;4.6;;;2.6;;
74644;SDS011;63163;55.630;37.594;2023-03-31T03:35:39;4.8;;;3.2;;
74644;SDS011;63163;55.630;37.594;2023-03-31T03:36:40;4.2;;;2.8;;
74644;SDS011;63163;55.630;37.594;2023-03-31T03:37:40;5.9;;;3.0;;
74644;SDS011;63163;55.630;37.594;2023-03-31T03:38:41;5.7;;;3.0;;
74644;SDS011;63163;55.630;37.594;2023-03-31T03:39:41;4.5;;;2.9;;
74644;SDS011;63163;55.630;37.594;2023-03-31T03:40:42;4.6;;;3.1;;
74644;SDS011;63163;55.630;37.594;2023-03-31T03:41:42;5.4;;;3.1;;
74644;SDS011;63163;55.630;37.594;2023-03-31T03:42:43;6.5;;;3.1;;
74644;SDS011;63163;55.630;37.594;2023-03-31T03:43:43;5.5;;;3.4;;
74644;SDS011;63163;55.630;37.594;2023-03-31T03:44:44;5.0;;;3.0;;
74644;SDS011;63163;55.630;37.594;2023-03-31T03:45:46;5.4;;;2.9;;
74644;SDS011;63163;55.630;37.594;2023-03-31T03:46:46;4.6;;;2.9;;
74644;SDS011;63163;55.630;37.594;2023-03-31T03:47:47;5.0;;;2.9;;
74644;SDS011;63163;55.630;37.594;2023-03-31T03:48:47;5.1;;;3.1;;
74644;SDS011;63163;55.630;37.594;2023-03-31T03:49:48;4.7;;;2.8;;
74644;SDS011;63163;55.630;37.594;2023-03-31T03:50:49;5.0;;;3.6;;
74644;SDS011;63163;55.630;37.594;2023-03-31T03:51:49;4.4;;;2.8;;
74644;SDS011;63163;55.630;37.594;2023-03-31T03:52:50;5.4;;;3.1;;
74644;SDS011;63163;55.630;37.594;2023-03-31T03:53:51;4.2;;;2.9;;
74644;SDS011;63163;55.630;37.594;2023-03-31T03:54:51;5.3;;;3.2;;
74644;SDS011;63163;55.630;37.594;2023-03-31T03:55:52;4.4;;;2.7;;
74644;SDS011;63163;55.630;37.594;2023-03-31T03:56:52;7.8;;;3.1;;
74644;SDS011;63163;55.630;37.594;2023-03-31T03:57:53;4.3;;;3.1;;
74644;SDS011;63163;55.630;37.594;2023-03-31T03:58:54;5.1;;;3.0;;
74644;SDS011;63163;55.630;37.594;2023-03-31T03:59:54;5.6;;;3.5;;
74644;SDS011;63163;55.630;37.594;2023-03-31T04:00:55;4.8;;;3.1;;
74644;SDS011;63163;55.630;37.594;2023-03-31T04:01:56;5.4;;;3.3;;
74644;SDS011;63163;55.630;37.594;2023-03-31T04:02:56;7.3;;;3.4;;
74644;SDS011;63163;55.630;37.594;2023-03-31T04:03:57;5.6;;;3.3;;
74644;SDS011;63163;55.630;37.594;2023-03-31T04:04:57;6.0;;;3.4;;
74644;SDS011;63163;55.630;37.594;2023-03-31T04:05:58;4.8;;;3.2;;
74644;SDS011;63163;55.630;37.594;2023-03-31T04:06:58;4.8;;;3.1;;
74644;SDS011;63163;55.630;37.594;2023-03-31T04:07:59;5.6;;;3.4;;
74644;SDS011;63163;55.630;37.594;2023-03-31T04:08:59;5.6;;;3.2;;
74644;SDS011;63163;55.630;37.594;2023-03-31T04:10:00;4.7;;;3.2;;
74644;SDS011;63163;55.630;37.594;2023-03-31T04:11:00;5.2;;;3.6;;
74644;SDS011;63163;55.630;37.594;2023-03-31T04:12:01;6.1;;;3.6;;
74644;SDS011;63163;55.630;37.594;2023-03-31T04:13:01;6.7;;;3.4;;
74644;SDS011;63163;55.630;37.594;2023-03-31T04:14:02;5.8;;;3.6;;
74644;SDS011;63163;55.630;37.594;2023-03-31T04:15:03;7.3;;;3.5;;
74644;SDS011;63163;55.630;37.594;2023-03-31T04:16:03;5.6;;;3.4;;
74644;SDS011;63163;55.630;37.594;2023-03-31T04:17:04;5.1;;;3.5;;
74644;SDS011;63163;55.630;37.594;2023-03-31T04:18:05;6.6;;;3.5;;
74644;SDS011;63163;55.630;37.594;2023-03-31T04:19:05;6.7;;;3.9;;
74644;SDS011;63163;55.630;37.594;2023-03-31T04:20:06;5.7;;;3.6;;
74644;SDS011;63163;55.630;37.594;2023-03-31T04:21:09;6.3;;;3.5;;
74644;SDS011;63163;55.630;37.594;2023-03-31T04:22:11;5.0;;;3.5;;
74644;SDS011;63163;55.630;37.594;2023-03-31T04:23:14;7.5;;;3.8;;
74644;SDS011;63163;55.630;37.594;2023-03-31T04:24:15;5.5;;;3.6;;
74644;SDS011;63163;55.630;37.594;2023-03-31T04:25:20;5.7;;;3.4;;
74644;SDS011;63163;55.630;37.594;2023-03-31T04:26:21;7.0;;;3.8;;
74644;SDS011;63163;55.630;37.594;2023-03-31T04:27:30;5.8;;;3.9;;
74644;SDS011;63163;55.630;37.594;2023-03-31T04:28:33;6.6;;;3.7;;
74644;SDS011;63163;55.630;37.594;2023-03-31T04:29:34;4.7;;;3.2;;
74644;SDS011;63163;55.630;37.594;2023-03-31T04:30:36;6.3;;;3.4;;
74644;SDS011;63163;55.630;37.594;2023-03-31T04:31:39;4.9;;;3.6;;
74644;SDS011;63163;55.630;37.594;2023-03-31T04:32:41;5.4;;;3.5;;
74644;SDS011;63163;55.630;37.594;2023-03-31T04:33:42;8.6;;;4.6;;
74644;SDS011;63163;55.630;37.594;2023-03-31T04:34:45;7.3;;;4.4;;
74644;SDS011;63163;55.630;37.594;2023-03-31T04:35:46;11.6;;;4.5;;
74644;SDS011;63163;55.630;37.594;2023-03-31T04:36:48;7.3;;;4.0;;
74644;SDS011;63163;55.630;37.594;2023-03-31T04:37:49;7.4;;;4.4;;
74644;SDS011;63163;55.630;37.594;2023-03-31T04:38:49;10.4;;;5.9;;
74644;SDS011;63163;55.630;37.594;2023-03-31T04:39:53;8.0;;;4.4;;
74644;SDS011;63163;55.630;37.594;2023-03-31T04:40:54;6.6;;;3.8;;
74644;SDS011;63163;55.630;37.594;2023-03-31T04:41:55;5.9;;;3.7;;
74644;SDS011;63163;55.630;37.594;2023-03-31T04:42:56;6.1;;;3.5;;
74644;SDS011;63163;55.630;37.594;2023-03-31T04:43:57;5.8;;;3.7;;
74644;SDS011;63163;55.630;37.594;2023-03-31T04:44:57;10.3;;;5.9;;
74644;SDS011;63163;55.630;37.594;2023-03-31T04:45:58;6.0;;;3.6;;
74644;SDS011;63163;55.630;37.594;2023-03-31T04:46:58;6.8;;;4.1;;
74644;SDS011;63163;55.630;37.594;2023-03-31T04:48:02;6.8;;;3.9;;
74644;SDS011;63163;55.630;37.594;2023-03-31T04:49:02;8.1;;;3.9;;
74644;SDS011;63163;55.630;37.594;2023-03-31T04:50:05;6.8;;;3.9;;
74644;SDS011;63163;55.630;37.594;2023-03-31T04:51:06;7.9;;;4.2;;
74644;SDS011;63163;55.630;37.594;2023-03-31T04:52:06;8.2;;;4.6;;
74644;SDS011;63163;55.630;37.594;2023-03-31T04:53:07;8.0;;;4.6;;
74644;SDS011;63163;55.630;37.594;2023-03-31T04:54:07;6.2;;;3.8;;
74644;SDS011;63163;55.630;37.594;2023-03-31T04:55:08;9.4;;;4.5;;
74644;SDS011;63163;55.630;37.594;2023-03-31T04:56:09;5.6;;;3.5;;
74644;SDS011;63163;55.630;37.594;2023-03-31T04:57:09;9.0;;;4.2;;
74644;SDS011;63163;55.630;37.594;2023-03-31T04:58:10;6.9;;;3.9;;
74644;SDS011;63163;55.630;37.594;2023-03-31T04:59:11;7.3;;;4.0;;
74644;SDS011;63163;55.630;37.594;2023-03-31T05:00:12;7.8;;;3.6;;
74644;SDS011;63163;55.630;37.594;2023-03-31T05:01:13;6.0;;;3.7;;
74644;SDS011;63163;55.630;37.594;2023-03-31T05:02:17;7.8;;;3.8;;
74644;SDS011;63163;55.630;37.594;2023-03-31T05:03:22;6.1;;;3.9;;
74644;SDS011;63163;55.630;37.594;2023-03-31T05:04:23;6.3;;;3.9;;
74644;SDS011;63163;55.630;37.594;2023-03-31T05:05:23;7.6;;;3.7;;
74644;SDS011;63163;55.630;37.594;2023-03-31T05:06:24;6.9;;;3.8;;
74644;SDS011;63163;55.630;37.594;2023-03-31T05:07:24;7.3;;;4.2;;
74644;SDS011;63163;55.630;37.594;2023-03-31T05:08:25;6.5;;;3.5;;
74644;SDS011;63163;55.630;37.594;2023-03-31T05:09:27;6.6;;;3.3;;
74644;SDS011;63163;55.630;37.594;2023-03-31T05:10:28;6.6;;;3.7;;
74644;SDS011;63163;55.630;37.594;2023-03-31T05:11:28;5.7;;;3.8;;
74644;SDS011;63163;55.630;37.594;2023-03-31T05:12:29;5.9;;;3.8;;
74644;SDS011;63163;55.630;37.594;2023-03-31T05:13:32;6.5;;;3.8;;
74644;SDS011;63163;55.630;37.594;2023-03-31T05:14:33;5.7;;;3.8;;
74644;SDS011;63163;55.630;37.594;2023-03-31T05:15:35;7.0;;;4.0;;
74644;SDS011;63163;55.630;37.594;2023-03-31T05:16:36;6.2;;;3.8;;
74644;SDS011;63163;55.630;37.594;2023-03-31T05:17:36;5.7;;;3.2;;
74644;SDS011;63163;55.630;37.594;2023-03-31T05:18:37;4.9;;;3.5;;
74644;SDS011;63163;55.630;37.594;2023-03-31T05:19:37;7.1;;;4.0;;
74644;SDS011;63163;55.630;37.594;2023-03-31T05:20:38;9.6;;;4.3;;
74644;SDS011;63163;55.630;37.594;2023-03-31T05:21:38;6.9;;;4.3;;
74644;SDS011;63163;55.630;37.594;2023-03-31T05:22:39;6.3;;;3.7;;
74644;SDS011;63163;55.630;37.594;2023-03-31T05:23:40;10.0;;;4.0;;
74644;SDS011;63163;55.630;37.594;2023-03-31T05:24:40;5.5;;;3.6;;
74644;SDS011;63163;55.630;37.594;2023-03-31T05:25:41;5.4;;;3.6;;
74644;SDS011;63163;55.630;37.594;2023-03-31T05:26:41;7.0;;;3.6;;
74644;SDS011;63163;55.630;37.594;2023-03-31T05:27:47;6.3;;;3.7;;
74644;SDS011;63163;55.630;37.594;2023-03-31T05:28:49;6.2;;;3.8;;
74644;SDS011;63163;55.630;37.594;2023-03-31T05:29:49;5.7;;;3.7;;
74644;SDS011;63163;55.630;37.594;2023-03-31T05:30:50;6.1;;;3.9;;
74644;SDS011;63163;55.630;37.594;2023-03-31T05:31:51;5.8;;;3.9;;
74644;SDS011;63163;55.630;37.594;2023-03-31T05:32:53;9.5;;;3.9;;
74644;SDS011;63163;55.630;37.594;2023-03-31T05:33:53;9.9;;;4.6;;
74644;SDS011;63163;55.630;37.594;2023-03-31T05:34:53;6.9;;;4.4;;
74644;SDS011;63163;55.630;37.594;2023-03-31T05:35:57;8.9;;;4.7;;
74644;SDS011;63163;55.630;37.594;2023-03-31T05:36:59;8.2;;;4.0;;
74644;SDS011;63163;55.630;37.594;2023-03-31T05:38:00;8.1;;;4.3;;
74644;SDS011;63163;55.630;37.594;2023-03-31T05:39:00;7.1;;;4.3;;
74644;SDS011;63163;55.630;37.594;2023-03-31T05:40:01;9.5;;;4.0;;
74644;SDS011;63163;55.630;37.594;2023-03-31T05:41:04;6.1;;;4.1;;
74644;SDS011;63163;55.630;37.594;2023-03-31T05:42:06;6.2;;;4.3;;
74644;SDS011;63163;55.630;37.594;2023-03-31T05:43:06;7.6;;;4.8;;
74644;SDS011;63163;55.630;37.594;2023-03-31T05:44:07;7.7;;;4.6;;
74644;SDS011;63163;55.630;37.594;2023-03-31T05:45:08;7.4;;;4.5;;
74644;SDS011;63163;55.630;37.594;2023-03-31T05:46:08;6.3;;;4.0;;
74644;SDS011;63163;55.630;37.594;2023-03-31T05:47:09;6.7;;;4.3;;
74644;SDS011;63163;55.630;37.594;2023-03-31T05:48:09;7.1;;;4.3;;
74644;SDS011;63163;55.630;37.594;2023-03-31T05:49:10;6.9;;;4.3;;
74644;SDS011;63163;55.630;37.594;2023-03-31T05:50:11;7.5;;;5.2;;
74644;SDS011;63163;55.630;37.594;2023-03-31T05:51:11;9.6;;;4.1;;
74644;SDS011;63163;55.630;37.594;2023-03-31T05:52:12;7.4;;;4.7;;
74644;SDS011;63163;55.630;37.594;2023-03-31T05:53:12;10.4;;;4.6;;
74644;SDS011;63163;55.630;37.594;2023-03-31T05:54:13;9.0;;;4.6;;
74644;SDS011;63163;55.630;37.594;2023-03-31T05:55:14;9.0;;;4.3;;
74644;SDS011;63163;55.630;37.594;2023-03-31T05:56:14;7.5;;;4.5;;
74644;SDS011;63163;55.630;37.594;2023-03-31T05:57:15;7.1;;;4.3;;
74644;SDS011;63163;55.630;37.594;2023-03-31T05:58:15;6.8;;;4.3;;
74644;SDS011;63163;55.630;37.594;2023-03-31T05:59:16;6.9;;;4.3;;
74644;SDS011;63163;55.630;37.594;2023-03-31T06:00:17;7.8;;;4.5;;
74644;SDS011;63163;55.630;37.594;2023-03-31T06:01:18;6.5;;;4.1;;
74644;SDS011;63163;55.630;37.594;2023-03-31T06:02:21;7.4;;;4.1;;
74644;SDS011;63163;55.630;37.594;2023-03-31T06:03:22;6.9;;;3.8;;
74644;SDS011;63163;55.630;37.594;2023-03-31T06:04:22;6.4;;;4.1;;
74644;SDS011;63163;55.630;37.594;2023-03-31T06:05:23;8.1;;;4.0;;
74644;SDS011;63163;55.630;37.594;2023-03-31T06:06:25;7.0;;;4.2;;
74644;SDS011;63163;55.630;37.594;2023-03-31T06:07:27;6.7;;;4.5;;
74644;SDS011;63163;55.630;37.594;2023-03-31T06:08:27;9.0;;;4.5;;
74644;SDS011;63163;55.630;37.594;2023-03-31T06:09:28;9.2;;;4.7;;
74644;SDS011;63163;55.630;37.594;2023-03-31T06:10:28;9.3;;;4.7;;
74644;SDS011;63163;55.630;37.594;2023-03-31T06:11:29;7.0;;;4.7;;
74644;SDS011;63163;55.630;37.594;2023-03-31T06:12:30;7.4;;;4.5;;
74644;SDS011;63163;55.630;37.594;2023-03-31T06:13:31;6.6;;;4.3;;
74644;SDS011;63163;55.630;37.594;2023-03-31T06:14:32;8.5;;;4.4;;
74644;SDS011;63163;55.630;37.594;2023-03-31T06:15:32;8.6;;;4.5;;
74644;SDS011;63163;55.630;37.594;2023-03-31T06:16:33;8.7;;;4.7;;
74644;SDS011;63163;55.630;37.594;2023-03-31T06:17:33;7.6;;;4.4;;
74644;SDS011;63163;55.630;37.594;2023-03-31T06:18:34;5.7;;;4.0;;
74644;SDS011;63163;55.630;37.594;2023-03-31T06:19:35;6.3;;;4.2;;
74644;SDS011;63163;55.630;37.594;2023-03-31T06:20:36;6.3;;;4.0;;
74644;SDS011;63163;55.630;37.594;2023-03-31T06:21:36;6.5;;;4.5;;
74644;SDS011;63163;55.630;37.594;2023-03-31T06:22:37;5.5;;;3.8;;